Time;durP1;ratioP1;P1;durP2;ratioP2;P2;SDS_P1;SDS_P2;PMS_P1;PMS_P2;Temp;Humidity;BMP_temperature;BMP_pressure;BME280_temperature;BME280_humidity;BME280_pressure;Samples;Min_cycle;Max_cycle;Signal;HPM_P1;HPM_P2
2021/06/08 00:01:51;;;;;;;8.63;7.10;;;18.90;99.90;;;;;;5093591;28;20218;-59
2021/06/08 00:04:17;;;;;;;7.60;6.90;;;18.90;99.90;;;;;;5094724;28;20256;-60
2021/06/08 00:06:43;;;;;;;7.40;6.70;;;18.90;99.90;;;;;;5094754;28;20197;-60
2021/06/08 00:09:08;;;;;;;8.27;7.20;;;18.90;99.90;;;;;;5093858;28;20575;-59
2021/06/08 00:11:34;;;;;;;6.83;6.23;;;18.90;99.90;;;;;;5094659;28;20186;-60
2021/06/08 00:13:59;;;;;;;6.83;6.23;;;18.80;99.90;;;;;;5093523;28;20272;-59
2021/06/08 00:16:25;;;;;;;7.27;6.57;;;18.80;99.90;;;;;;5094444;28;20194;-61
2021/06/08 00:18:51;;;;;;;7.47;6.87;;;18.70;99.90;;;;;;5094499;28;20261;-60
2021/06/08 00:21:16;;;;;;;7.30;6.60;;;18.70;99.90;;;;;;5093095;28;20200;-61
2021/06/08 00:23:42;;;;;;;6.87;6.27;;;18.70;99.90;;;;;;5094605;28;20196;-60
2021/06/08 00:26:07;;;;;;;6.97;6.37;;;18.70;99.90;;;;;;5094359;28;20173;-57
2021/06/08 00:28:33;;;;;;;6.53;5.87;;;18.70;99.90;;;;;;5094237;28;20170;-59
2021/06/08 00:30:58;;;;;;;6.43;5.87;;;18.70;99.90;;;;;;5094190;28;20207;-61
2021/06/08 00:33:24;;;;;;;6.47;5.87;;;18.70;99.90;;;;;;5094385;28;20522;-61
2021/06/08 00:35:49;;;;;;;6.40;5.80;;;18.70;99.90;;;;;;5093323;28;20189;-59
2021/06/08 00:38:15;;;;;;;6.47;5.90;;;18.80;99.90;;;;;;5093813;28;20213;-58
2021/06/08 00:40:42;;;;;;;5.53;5.13;;;18.70;99.90;;;;;;5094130;28;20208;-58
2021/06/08 00:43:08;;;;;;;6.73;6.07;;;18.70;99.90;;;;;;5092961;28;20169;-58
2021/06/08 00:45:33;;;;;;;6.23;5.63;;;18.70;99.90;;;;;;5094319;28;20204;-58
2021/06/08 00:47:59;;;;;;;10.70;5.87;;;18.70;99.90;;;;;;5093530;28;20194;-59
2021/06/08 00:50:25;;;;;;;6.50;5.87;;;18.60;99.90;;;;;;5093982;28;20577;-61
2021/06/08 00:52:51;;;;;;;6.97;6.33;;;18.60;99.90;;;;;;5092744;28;20280;-58
2021/06/08 00:55:18;;;;;;;6.53;6.03;;;18.60;99.90;;;;;;5094193;28;20187;-54
2021/06/08 00:57:43;;;;;;;6.10;5.50;;;18.60;99.90;;;;;;5093139;28;20205;-59
2021/06/08 01:00:09;;;;;;;6.90;6.20;;;18.60;99.90;;;;;;5093816;28;20542;-59
2021/06/08 01:02:35;;;;;;;6.80;6.10;;;18.60;99.90;;;;;;5093679;28;20180;-61
2021/06/08 01:05:06;;;;;;;7.00;6.30;;;18.60;99.90;;;;;;5092810;28;20190;-58
2021/06/08 01:07:34;;;;;;;9.87;7.23;;;18.60;99.90;;;;;;5093786;28;20196;-61
2021/06/08 01:10:01;;;;;;;10.40;9.40;;;18.40;99.90;;;;;;5092982;28;20176;-57
2021/06/08 01:12:27;;;;;;;9.40;8.60;;;18.30;99.90;;;;;;5093768;28;20238;-56
2021/06/08 01:14:53;;;;;;;9.23;8.33;;;18.20;99.90;;;;;;5093631;28;20579;-58
2021/06/08 01:17:19;;;;;;;9.63;8.73;;;18.20;99.90;;;;;;5093721;28;20215;-60
2021/06/08 01:19:46;;;;;;;9.50;8.60;;;18.20;99.90;;;;;;5093538;28;20254;-58
2021/06/08 01:22:13;;;;;;;8.93;8.13;;;18.10;99.90;;;;;;5092701;28;20230;-60
2021/06/08 01:24:38;;;;;;;9.43;8.63;;;17.90;99.90;;;;;;5093866;28;20239;-61
2021/06/08 01:27:05;;;;;;;9.50;8.50;;;17.70;99.90;;;;;;5093659;28;20595;-58
2021/06/08 01:29:33;;;;;;;9.40;8.60;;;17.70;99.90;;;;;;5092601;28;20623;-59
2021/06/08 01:32:00;;;;;;;9.17;8.37;;;17.70;99.90;;;;;;5093431;28;20235;-58
2021/06/08 01:34:26;;;;;;;8.73;7.83;;;17.80;99.90;;;;;;5092627;28;20201;-59
2021/06/08 01:36:52;;;;;;;10.20;8.83;;;17.70;99.90;;;;;;5093750;28;20243;-61
2021/06/08 01:39:18;;;;;;;8.93;8.13;;;17.70;99.90;;;;;;5093339;28;20197;-60
2021/06/08 01:41:44;;;;;;;10.83;9.87;;;17.70;99.90;;;;;;5092315;28;20292;-58
2021/06/08 01:44:13;;;;;;;14.97;13.67;;;17.70;99.90;;;;;;5093597;28;20254;-61
2021/06/08 01:46:38;;;;;;;13.33;12.23;;;17.70;99.90;;;;;;5093573;28;20285;-58
2021/06/08 01:49:04;;;;;;;13.47;12.17;;;17.70;99.90;;;;;;5093705;28;20267;-60
2021/06/08 01:52:03;;;;;;;12.50;11.20;;;17.70;99.90;;;;;;5093010;28;20189;-57
2021/06/08 01:54:43;;;;;;;13.10;11.90;;;17.70;99.90;;;;;;5093560;28;20704;-54
2021/06/08 01:57:17;;;;;;;12.47;11.27;;;17.80;99.90;;;;;;5093334;28;20194;-57
2021/06/08 02:00:09;;;;;;;13.17;11.87;;;17.80;99.90;;;;;;5094202;28;20269;-55
2021/06/08 02:02:53;;;;;;;17.00;15.40;;;17.80;99.90;;;;;;5097159;28;20175;-60
2021/06/08 02:05:42;;;;;;;18.23;16.53;;;17.60;99.90;;;;;;5096391;28;20182;-61
2021/06/08 02:08:19;;;;;;;18.17;16.57;;;17.70;99.90;;;;;;5097115;28;20190;-58
2021/06/08 02:10:59;;;;;;;17.13;15.63;;;17.60;99.90;;;;;;5097095;28;20178;-61
2021/06/08 02:14:02;;;;;;;15.93;14.40;;;17.70;99.90;;;;;;5096308;28;20178;-58
2021/06/08 02:16:30;;;;;;;12.27;11.20;;;17.80;99.90;;;;;;5095824;28;20202;-60
2021/06/08 02:18:56;;;;;;;10.23;9.33;;;17.70;99.90;;;;;;5096868;28;20177;-60
2021/06/08 02:21:28;;;;;;;8.37;7.67;;;17.80;99.90;;;;;;5095311;28;20214;-60
2021/06/08 02:23:54;;;;;;;7.90;7.20;;;17.80;99.90;;;;;;5095747;28;20257;-56
2021/06/08 02:26:23;;;;;;;7.93;7.13;;;17.80;99.90;;;;;;5096768;28;20564;-60
2021/06/08 02:28:50;;;;;;;7.13;6.53;;;17.80;99.90;;;;;;5096620;28;20166;-59
2021/06/08 02:31:17;;;;;;;7.53;6.83;;;17.80;99.90;;;;;;5096588;28;20500;-60
2021/06/08 02:33:46;;;;;;;7.97;6.43;;;17.80;99.90;;;;;;5095689;28;20186;-59
2021/06/08 02:36:13;;;;;;;7.53;6.83;;;17.80;99.90;;;;;;5096620;28;20192;-61
2021/06/08 02:38:39;;;;;;;9.10;8.30;;;17.80;99.90;;;;;;5095944;28;20206;-59
2021/06/08 02:41:06;;;;;;;10.03;9.13;;;17.70;99.90;;;;;;5095386;28;20231;-61
2021/06/08 02:43:33;;;;;;;11.57;10.57;;;17.70;99.90;;;;;;5096573;28;20257;-59
2021/06/08 02:46:00;;;;;;;10.93;10.03;;;17.70;99.90;;;;;;5096403;28;20178;-58
2021/06/08 02:48:26;;;;;;;11.10;10.00;;;17.70;99.90;;;;;;5096283;28;20190;-59
2021/06/08 02:50:54;;;;;;;10.57;9.67;;;17.60;99.90;;;;;;5094982;28;20189;-61
2021/06/08 02:53:21;;;;;;;10.57;9.30;;;17.60;99.90;;;;;;5096268;28;20192;-58
2021/06/08 02:55:47;;;;;;;9.63;8.63;;;17.50;99.90;;;;;;5096296;28;20184;-58
2021/06/08 02:58:13;;;;;;;9.77;8.90;;;17.40;99.90;;;;;;5095459;28;20673;-58
2021/06/08 03:00:40;;;;;;;9.23;8.53;;;17.40;99.90;;;;;;5096050;28;20578;-58
2021/06/08 03:03:07;;;;;;;9.73;8.87;;;17.30;99.90;;;;;;5095889;28;20184;-58
2021/06/08 03:05:39;;;;;;;10.37;9.43;;;17.30;99.90;;;;;;5094328;28;20279;-59
2021/06/08 03:08:12;;;;;;;11.07;10.07;;;17.20;99.90;;;;;;5094535;28;20198;-56
2021/06/08 03:10:38;;;;;;;10.80;9.70;;;17.20;99.90;;;;;;5094314;28;20235;-58
2021/06/08 03:13:07;;;;;;;10.00;9.00;;;17.10;99.90;;;;;;5095551;28;20230;-60
2021/06/08 03:15:41;;;;;;;10.30;9.30;;;17.10;99.90;;;;;;5095771;28;20642;-60
2021/06/08 03:18:11;;;;;;;10.23;9.33;;;17.10;99.90;;;;;;5095628;28;20216;-61
2021/06/08 03:21:22;;;;;;;11.43;10.13;;;17.00;99.90;;;;;;5094173;28;20217;-60
2021/06/08 03:23:51;;;;;;;11.23;10.07;;;17.10;99.90;;;;;;5073357;28;20198;-60
2021/06/08 03:26:18;;;;;;;11.27;10.17;;;17.00;99.90;;;;;;5072629;28;20183;-54
2021/06/08 03:28:47;;;;;;;12.43;11.33;;;16.90;99.90;;;;;;5072417;28;20301;-61
2021/06/08 03:31:14;;;;;;;10.70;9.70;;;17.00;99.90;;;;;;5072923;28;20182;-59
2021/06/08 03:33:41;;;;;;;10.13;9.23;;;17.00;99.90;;;;;;5071933;28;20208;-60
2021/06/08 03:36:08;;;;;;;12.57;11.37;;;17.00;99.90;;;;;;5072988;28;20175;-58
2021/06/08 03:38:34;;;;;;;10.67;9.73;;;16.70;99.90;;;;;;5071746;28;20638;-59
2021/06/08 03:41:01;;;;;;;10.87;9.87;;;16.50;99.90;;;;;;5072652;28;20195;-58
2021/06/08 03:43:27;;;;;;;11.47;10.17;;;16.50;99.90;;;;;;5073077;28;20654;-57
2021/06/08 03:45:53;;;;;;;10.63;9.67;;;16.50;99.90;;;;;;5071619;28;20555;-60
2021/06/08 03:48:19;;;;;;;11.13;10.13;;;16.50;99.90;;;;;;5072708;28;20276;-61
2021/06/08 03:50:49;;;;;;;10.60;9.60;;;16.50;99.90;;;;;;5071449;28;20209;-60
2021/06/08 03:53:14;;;;;;;10.40;9.50;;;16.50;99.90;;;;;;5072447;28;20229;-57
2021/06/08 03:55:40;;;;;;;10.53;9.53;;;16.50;99.90;;;;;;5072860;28;20182;-57
2021/06/08 03:58:12;;;;;;;10.27;9.30;;;16.60;99.90;;;;;;5088562;28;20227;-54
2021/06/08 04:00:39;;;;;;;9.90;9.00;;;16.70;99.90;;;;;;5095053;28;20209;-57
2021/06/08 04:03:06;;;;;;;10.43;9.43;;;16.80;99.90;;;;;;5093672;28;20184;-57
2021/06/08 04:05:32;;;;;;;9.90;8.90;;;16.90;99.90;;;;;;5094977;28;20170;-61
2021/06/08 04:07:58;;;;;;;10.97;9.83;;;17.00;99.90;;;;;;5094014;28;20738;-61
2021/06/08 04:10:24;;;;;;;11.17;10.20;;;17.10;99.90;;;;;;5094890;28;20178;-59
2021/06/08 04:12:50;;;;;;;11.20;10.13;;;17.10;99.90;;;;;;5094555;28;20560;-58
2021/06/08 04:15:17;;;;;;;11.30;9.27;;;17.20;99.90;;;;;;5093340;28;20186;-59
2021/06/08 04:17:44;;;;;;;10.73;9.80;;;17.30;99.90;;;;;;5094449;28;20272;-54
2021/06/08 04:20:11;;;;;;;11.17;10.27;;;17.30;99.90;;;;;;5093491;28;20190;-57
2021/06/08 04:22:39;;;;;;;10.27;9.27;;;17.40;99.90;;;;;;5093264;28;20646;-60
2021/06/08 04:25:07;;;;;;;10.33;9.43;;;17.40;99.90;;;;;;5094476;28;20666;-59
2021/06/08 04:27:34;;;;;;;10.43;9.53;;;17.40;99.90;;;;;;5094545;28;20242;-58
2021/06/08 04:30:00;;;;;;;10.60;9.70;;;17.50;99.90;;;;;;5094563;28;20170;-55
2021/06/08 04:32:25;;;;;;;11.93;10.83;;;17.50;99.90;;;;;;5093124;28;20191;-59
2021/06/08 04:34:54;;;;;;;11.33;10.33;;;17.50;99.90;;;;;;5092964;28;20608;-59
2021/06/08 04:37:20;;;;;;;11.37;10.37;;;17.30;99.90;;;;;;5094013;28;20549;-58
2021/06/08 04:39:46;;;;;;;11.53;10.53;;;17.20;99.90;;;;;;5093420;28;20232;-60
2021/06/08 04:42:14;;;;;;;12.00;10.67;;;17.10;99.90;;;;;;5093989;28;20641;-60
2021/06/08 04:44:47;;;;;;;10.90;10.00;;;17.00;99.90;;;;;;5093215;28;20182;-56
2021/06/08 04:47:15;;;;;;;11.37;10.33;;;17.10;99.90;;;;;;5093911;28;20190;-55
2021/06/08 04:49:41;;;;;;;11.73;10.63;;;17.10;99.90;;;;;;5093388;28;20205;-57
2021/06/08 04:52:07;;;;;;;11.33;10.33;;;17.10;99.90;;;;;;5093568;28;20205;-57
2021/06/08 04:54:34;;;;;;;11.13;10.20;;;17.00;99.90;;;;;;5093985;28;20178;-57
2021/06/08 04:57:01;;;;;;;11.87;10.77;;;17.00;99.90;;;;;;5092960;28;20205;-58
2021/06/08 04:59:41;;;;;;;11.17;10.17;;;17.10;99.90;;;;;;5094226;28;20174;-58
2021/06/08 05:02:19;;;;;;;11.97;10.87;;;17.20;99.90;;;;;;5092869;28;20247;-59
2021/06/08 05:04:45;;;;;;;11.23;10.23;;;17.40;99.90;;;;;;5094099;28;20159;-58
2021/06/08 05:07:15;;;;;;;12.70;11.53;;;17.50;99.90;;;;;;5091130;28;20201;-60
2021/06/08 05:09:44;;;;;;;11.60;10.50;;;17.50;99.90;;;;;;5093938;28;20171;-58
2021/06/08 05:12:12;;;;;;;10.90;9.80;;;17.60;99.90;;;;;;5093627;28;20204;-61
2021/06/08 05:14:52;;;;;;;10.97;9.97;;;17.70;99.90;;;;;;5092944;28;20567;-59
2021/06/08 05:17:20;;;;;;;9.93;9.13;;;17.90;99.90;;;;;;5094016;28;20571;-60
2021/06/08 05:19:48;;;;;;;9.90;9.00;;;18.10;99.90;;;;;;5094065;28;20184;-58
2021/06/08 05:22:18;;;;;;;10.53;9.53;;;18.30;99.90;;;;;;5093956;28;20181;-58
2021/06/08 05:24:50;;;;;;;9.23;8.43;;;18.40;99.90;;;;;;5094363;28;20252;-63
2021/06/08 05:27:17;;;;;;;11.07;10.17;;;18.50;99.90;;;;;;5092748;28;20205;-63
2021/06/08 05:29:43;;;;;;;9.67;8.87;;;18.70;99.90;;;;;;5093946;28;20222;-57
2021/06/08 05:32:10;;;;;;;10.40;9.37;;;18.60;99.90;;;;;;5093729;28;20599;-60
2021/06/08 05:34:41;;;;;;;9.43;8.63;;;18.80;99.90;;;;;;5094617;28;20630;-63
2021/06/08 05:37:08;;;;;;;10.00;9.10;;;18.90;99.90;;;;;;5097094;28;20231;-62
2021/06/08 05:39:35;;;;;;;9.77;8.87;;;19.00;99.90;;;;;;5097057;28;20180;-59
2021/06/08 05:42:01;;;;;;;10.13;8.60;;;19.10;99.90;;;;;;5096875;28;20652;-58
2021/06/08 05:44:27;;;;;;;8.63;7.73;;;19.20;99.90;;;;;;5096294;28;20792;-59
2021/06/08 05:46:52;;;;;;;8.93;8.13;;;19.40;99.90;;;;;;5097474;28;20185;-62
2021/06/08 05:49:18;;;;;;;9.23;8.33;;;19.40;99.90;;;;;;5097628;28;20231;-60
2021/06/08 05:51:44;;;;;;;8.80;8.00;;;19.30;99.90;;;;;;5097342;28;20173;-61
2021/06/08 05:54:10;;;;;;;9.90;9.00;;;19.40;99.90;;;;;;5096193;28;20261;-60
2021/06/08 05:56:38;;;;;;;9.00;8.20;;;19.60;99.90;;;;;;5096008;28;20685;-57
2021/06/08 05:59:04;;;;;;;9.10;8.20;;;19.70;99.90;;;;;;5096355;28;20194;-62
2021/06/08 06:01:29;;;;;;;9.47;8.63;;;19.70;99.90;;;;;;5096580;28;20194;-57
2021/06/08 06:03:56;;;;;;;10.00;9.20;;;19.70;99.90;;;;;;5096919;28;20223;-58
2021/06/08 06:06:24;;;;;;;10.47;9.57;;;19.50;99.90;;;;;;5096653;28;20619;-62
2021/06/08 06:08:49;;;;;;;9.40;8.03;;;19.40;99.90;;;;;;5096135;28;20656;-62
2021/06/08 06:11:16;;;;;;;10.13;9.13;;;19.50;99.90;;;;;;5096038;28;20178;-60
2021/06/08 06:13:48;;;;;;;9.57;8.70;;;19.70;99.90;;;;;;5096933;28;20177;-61
2021/06/08 06:16:17;;;;;;;10.83;10.00;;;19.80;99.90;;;;;;5078576;28;20529;-63
2021/06/08 06:18:44;;;;;;;11.60;10.50;;;19.70;99.90;;;;;;5097560;28;20596;-56
2021/06/08 06:21:10;;;;;;;9.53;8.63;;;19.60;99.90;;;;;;5095833;28;20210;-61
2021/06/08 06:23:36;;;;;;;9.20;8.40;;;19.80;99.90;;;;;;5095358;28;20178;-60
2021/06/08 06:26:02;;;;;;;8.07;7.37;;;19.80;99.90;;;;;;5094724;28;20179;-62
2021/06/08 06:28:28;;;;;;;9.20;8.40;;;20.00;99.90;;;;;;5095076;28;20182;-58
2021/06/08 06:30:54;;;;;;;8.03;7.33;;;20.20;99.90;;;;;;5095185;28;20185;-59
2021/06/08 06:33:21;;;;;;;9.27;8.37;;;20.40;99.90;;;;;;5096337;28;20174;-62
2021/06/08 06:35:46;;;;;;;9.70;8.70;;;20.50;99.90;;;;;;5095191;28;20182;-61
2021/06/08 06:38:12;;;;;;;9.00;8.20;;;20.60;99.90;;;;;;5096247;28;20263;-60
2021/06/08 06:40:39;;;;;;;8.90;8.17;;;20.60;99.90;;;;;;5095164;28;20194;-61
2021/06/08 06:43:08;;;;;;;8.87;8.10;;;20.50;99.90;;;;;;5096117;28;20500;-60
2021/06/08 06:45:36;;;;;;;8.50;7.70;;;20.60;99.90;;;;;;5094122;28;20170;-57
2021/06/08 06:48:03;;;;;;;9.50;8.70;;;20.70;99.90;;;;;;5096395;28;20194;-57
2021/06/08 06:50:35;;;;;;;9.30;8.40;;;20.70;99.90;;;;;;5096201;28;20208;-58
2021/06/08 06:53:01;;;;;;;9.33;8.53;;;20.80;99.90;;;;;;5094953;28;20271;-60
2021/06/08 06:55:28;;;;;;;8.63;7.63;;;20.80;99.90;;;;;;5096294;28;20216;-59
2021/06/08 06:57:54;;;;;;;9.30;8.43;;;20.90;99.90;;;;;;5095163;28;20194;-60
2021/06/08 07:00:20;;;;;;;9.23;8.00;;;21.00;99.90;;;;;;5095871;28;20198;-59
2021/06/08 07:02:48;;;;;;;9.23;8.30;;;21.10;99.90;;;;;;5095865;28;20177;-59
2021/06/08 07:05:16;;;;;;;10.00;9.00;;;21.10;99.90;;;;;;5096098;28;20162;-55
2021/06/08 07:07:46;;;;;;;8.75;8.05;;;21.00;99.90;;;;;;5094021;28;20224;-59
2021/06/08 07:10:14;;;;;;;9.23;8.38;;;21.00;99.90;;;;;;5095504;28;20170;-58
2021/06/08 07:12:41;;;;;;;8.90;7.73;;;21.00;99.90;;;;;;5094939;28;20182;-58
2021/06/08 07:15:09;;;;;;;11.43;8.13;;;21.10;99.90;;;;;;5095226;28;20175;-60
2021/06/08 07:17:35;;;;;;;8.53;7.80;;;21.10;99.90;;;;;;5095220;28;20204;-56
2021/06/08 07:20:04;;;;;;;8.70;7.90;;;21.20;99.90;;;;;;5095629;28;20719;-57
2021/06/08 07:22:30;;;;;;;9.13;8.23;;;21.20;99.90;;;;;;5094695;28;20527;-57
2021/06/08 07:24:56;;;;;;;9.80;8.13;;;21.30;99.90;;;;;;5095171;28;20626;-53
2021/06/08 07:27:22;;;;;;;8.43;7.70;;;21.20;99.90;;;;;;5095644;28;20195;-58
2021/06/08 07:29:49;;;;;;;8.73;8.02;;;21.20;99.90;;;;;;5094439;28;20527;-56
2021/06/08 07:32:20;;;;;;;8.97;8.07;;;21.20;99.90;;;;;;5095313;28;20514;-58
2021/06/08 07:35:14;;;;;;;8.55;7.75;;;21.20;99.90;;;;;;5095371;28;20173;-58
2021/06/08 07:37:45;;;;;;;8.23;7.53;;;21.30;99.90;;;;;;5095171;28;20198;-59
2021/06/08 07:40:27;;;;;;;7.72;7.03;;;21.40;99.90;;;;;;5095405;28;20198;-57
2021/06/08 07:43:03;;;;;;;7.82;7.07;;;21.50;99.90;;;;;;5095007;28;20167;-56
2021/06/08 07:45:35;;;;;;;8.77;7.43;;;21.60;99.90;;;;;;5095091;28;20670;-56
2021/06/08 07:48:03;;;;;;;8.55;7.43;;;21.70;99.90;;;;;;5093834;28;20280;-57
2021/06/08 07:50:36;;;;;;;9.25;7.22;;;21.80;99.90;;;;;;5095094;28;20183;-56
2021/06/08 07:53:02;;;;;;;7.30;6.70;;;21.90;99.90;;;;;;5094022;28;20632;-55
2021/06/08 07:55:30;;;;;;;6.90;6.25;;;22.00;99.90;;;;;;5094958;28;20248;-56
2021/06/08 07:57:56;;;;;;;7.55;6.85;;;22.00;99.90;;;;;;5094870;28;20261;-58
2021/06/08 08:00:23;;;;;;;7.10;6.50;;;22.10;99.90;;;;;;5094869;28;20205;-55
2021/06/08 08:02:51;;;;;;;7.47;6.20;;;22.20;99.90;;;;;;5094478;28;20166;-59
2021/06/08 08:05:18;;;;;;;6.97;6.28;;;22.30;99.90;;;;;;5094851;28;20165;-59
2021/06/08 08:07:44;;;;;;;6.97;6.30;;;22.40;99.90;;;;;;5093607;28;20520;-56
2021/06/08 08:10:11;;;;;;;8.38;6.00;;;22.40;99.90;;;;;;5094783;28;20264;-58
2021/06/08 08:12:38;;;;;;;6.70;6.15;;;22.40;99.90;;;;;;5094143;28;20651;-56
2021/06/08 08:15:06;;;;;;;6.65;6.05;;;22.50;99.90;;;;;;5094207;28;20185;-57
2021/06/08 08:17:32;;;;;;;6.18;5.60;;;22.60;99.90;;;;;;5093532;28;20241;-59
2021/06/08 08:19:59;;;;;;;6.32;5.20;;;22.70;99.90;;;;;;5094407;28;20197;-57
2021/06/08 08:22:25;;;;;;;6.45;5.75;;;22.70;99.90;;;;;;5093056;28;20170;-59
2021/06/08 08:24:50;;;;;;;6.05;5.10;;;22.80;99.90;;;;;;5093345;28;20177;-56
2021/06/08 08:27:16;;;;;;;6.07;5.22;;;22.80;99.90;;;;;;5094343;28;20545;-57
2021/06/08 08:29:45;;;;;;;5.85;4.97;;;22.80;99.90;;;;;;5094570;28;20170;-52
2021/06/08 08:32:11;;;;;;;6.10;5.50;;;23.00;99.90;;;;;;5094194;28;20178;-57
2021/06/08 08:34:39;;;;;;;5.80;5.35;;;23.10;99.90;;;;;;5092983;28;20515;-57
2021/06/08 08:37:05;;;;;;;5.60;5.10;;;23.20;99.90;;;;;;5094191;28;20276;-56
2021/06/08 08:39:31;;;;;;;4.93;4.53;;;23.20;99.90;;;;;;5093773;28;20173;-59
2021/06/08 08:41:56;;;;;;;5.65;5.15;;;23.50;99.90;;;;;;5093725;28;20209;-58
2021/06/08 08:44:24;;;;;;;5.25;4.72;;;23.50;99.90;;;;;;5094347;28;20253;-55
2021/06/08 08:46:50;;;;;;;5.70;4.70;;;23.60;99.90;;;;;;5092874;28;20193;-56
2021/06/08 08:49:15;;;;;;;5.82;4.63;;;23.70;99.90;;;;;;5094346;28;20197;-55
2021/06/08 08:51:42;;;;;;;5.40;4.90;;;23.70;99.90;;;;;;5093822;28;20576;-55
2021/06/08 08:54:11;;;;;;;6.18;4.85;;;23.70;99.90;;;;;;5093455;28;20174;-57
2021/06/08 08:56:38;;;;;;;5.57;5.07;;;23.70;99.90;;;;;;5093941;28;20224;-58
2021/06/08 08:59:09;;;;;;;5.28;4.82;;;23.80;99.90;;;;;;5094228;28;20230;-58
2021/06/08 09:01:36;;;;;;;4.45;4.05;;;23.90;99.90;;;;;;5093499;28;20210;-57
2021/06/08 09:04:03;;;;;;;6.10;5.13;;;24.20;99.90;;;;;;5093378;28;20194;-53
2021/06/08 09:06:29;;;;;;;5.38;4.78;;;24.30;99.90;;;;;;5093792;28;20194;-57
2021/06/08 09:08:55;;;;;;;6.88;5.00;;;24.40;99.90;;;;;;5094882;28;20605;-58
2021/06/08 09:11:20;;;;;;;5.53;5.03;;;24.40;99.90;;;;;;5100513;28;20644;-53
2021/06/08 09:13:46;;;;;;;4.82;4.40;;;24.50;99.90;;;;;;5099988;28;20200;-57
2021/06/08 09:16:15;;;;;;;4.38;4.07;;;24.60;99.90;;;;;;5100506;28;20252;-57
2021/06/08 09:18:41;;;;;;;5.15;4.65;;;24.80;99.90;;;;;;5100501;28;20208;-57
2021/06/08 09:21:12;;;;;;;5.13;4.63;;;24.80;99.90;;;;;;5099343;28;20205;-56
2021/06/08 09:23:37;;;;;;;5.50;4.30;;;24.80;99.90;;;;;;5101268;28;20188;-58
2021/06/08 09:26:03;;;;;;;4.82;4.43;;;24.80;99.90;;;;;;5099559;28;20178;-54
2021/06/08 09:28:31;;;;;;;5.30;4.90;;;24.90;99.90;;;;;;5100579;28;20180;-58
2021/06/08 09:31:03;;;;;;;6.97;5.20;;;25.00;99.90;;;;;;5100409;28;20530;-59
2021/06/08 09:33:40;;;;;;;5.75;4.63;;;25.10;99.90;;;;;;5099544;28;20176;-53
2021/06/08 09:36:19;;;;;;;5.65;4.50;;;25.10;99.90;;;;;;5100608;28;20180;-55
2021/06/08 09:38:45;;;;;;;7.45;4.40;;;25.30;99.90;;;;;;5099651;28;20645;-56
2021/06/08 09:41:16;;;;;;;5.90;5.35;;;25.50;99.90;;;;;;5100214;28;20198;-52
2021/06/08 09:43:55;;;;;;;4.15;3.75;;;25.40;99.90;;;;;;5099342;28;20178;-56
2021/06/08 09:46:22;;;;;;;4.28;3.95;;;25.50;99.90;;;;;;5100246;28;20158;-58
2021/06/08 09:49:15;;;;;;;4.30;3.90;;;25.80;99.90;;;;;;5100447;28;20212;-55
2021/06/08 09:51:47;;;;;;;4.20;3.80;;;26.10;99.90;;;;;;5098434;28;20653;-58
2021/06/08 09:54:25;;;;;;;4.57;4.03;;;26.20;99.90;;;;;;5099091;28;20197;-54
2021/06/08 09:57:09;;;;;;;5.13;4.20;;;26.20;99.90;;;;;;5100148;28;20224;-56
2021/06/08 09:59:47;;;;;;;4.30;4.00;;;26.40;99.90;;;;;;5099363;28;20173;-57
2021/06/08 10:02:49;;;;;;;3.75;3.45;;;26.50;99.90;;;;;;5100009;28;20209;-58
2021/06/08 10:05:27;;;;;;;4.18;3.78;;;26.50;99.90;;;;;;5100379;28;20200;-57
2021/06/08 10:08:08;;;;;;;3.83;3.22;;;26.50;99.20;;;;;;5099048;28;20202;-53
2021/06/08 10:10:45;;;;;;;4.05;3.33;;;26.50;97.70;;;;;;5100084;28;20174;-54
2021/06/08 10:13:15;;;;;;;3.60;3.30;;;26.80;99.90;;;;;;5099246;28;20261;-58
2021/06/08 10:15:57;;;;;;;4.35;3.95;;;27.10;99.90;;;;;;5100085;28;20162;-58
2021/06/08 10:18:24;;;;;;;4.65;4.20;;;27.40;99.90;;;;;;5100095;28;20229;-54
2021/06/08 10:20:54;;;;;;;4.25;3.90;;;27.20;99.90;;;;;;5098516;28;20198;-54
2021/06/08 10:23:31;;;;;;;4.28;3.88;;;27.10;99.90;;;;;;5095691;28;20178;-56
2021/06/08 10:26:06;;;;;;;4.22;3.88;;;27.20;99.60;;;;;;5096983;28;20177;-55
2021/06/08 10:28:32;;;;;;;4.30;3.97;;;27.10;99.00;;;;;;5095802;28;20170;-58
2021/06/08 10:30:59;;;;;;;4.70;3.95;;;27.00;99.20;;;;;;5096700;28;20197;-58
2021/06/08 10:33:25;;;;;;;4.78;3.80;;;27.00;99.10;;;;;;5096321;28;20182;-59
2021/06/08 10:35:52;;;;;;;3.92;3.63;;;26.90;97.30;;;;;;5095899;28;20261;-55
2021/06/08 10:38:19;;;;;;;4.20;3.78;;;27.00;97.00;;;;;;5096492;28;20224;-56
2021/06/08 10:40:52;;;;;;;4.28;3.90;;;27.20;98.90;;;;;;5095586;28;20275;-59
2021/06/08 10:43:24;;;;;;;4.53;4.10;;;27.40;99.90;;;;;;5096652;28;20181;-58
2021/06/08 10:45:52;;;;;;;3.92;3.53;;;27.60;99.90;;;;;;5095488;28;20185;-56
2021/06/08 10:48:22;;;;;;;3.83;3.53;;;27.70;98.90;;;;;;5096487;28;20200;-58
2021/06/08 10:50:49;;;;;;;3.58;3.28;;;27.70;98.20;;;;;;5096524;28;20204;-57
2021/06/08 10:53:31;;;;;;;3.42;3.13;;;27.70;98.50;;;;;;5095315;28;20200;-54
2021/06/08 10:55:58;;;;;;;3.45;3.00;;;27.60;98.80;;;;;;5096664;28;20227;-59
2021/06/08 10:58:48;;;;;;;4.13;3.17;;;27.60;99.00;;;;;;5096265;28;20205;-53
2021/06/08 11:01:41;;;;;;;4.18;3.30;;;27.60;98.40;;;;;;5095847;28;20673;-56
2021/06/08 11:04:46;;;;;;;4.15;3.10;;;27.60;98.20;;;;;;5095751;28;20182;-56
2021/06/08 11:07:11;;;;;;;4.20;3.70;;;27.60;98.00;;;;;;5095737;28;20673;-57
2021/06/08 11:09:38;;;;;;;4.57;4.18;;;27.60;96.30;;;;;;5095080;28;20170;-56
2021/06/08 11:12:09;;;;;;;5.20;4.68;;;27.40;97.30;;;;;;5095972;28;20182;-59
2021/06/08 11:14:41;;;;;;;5.40;4.95;;;27.10;98.40;;;;;;5096038;28;20178;-56
2021/06/08 11:17:25;;;;;;;5.65;5.20;;;27.00;99.10;;;;;;5094761;28;20208;-54
2021/06/08 11:19:59;;;;;;;5.63;4.78;;;26.90;99.30;;;;;;5095718;28;20686;-58
2021/06/08 11:22:34;;;;;;;4.40;4.00;;;26.70;99.20;;;;;;5094824;28;20422;-55
2021/06/08 11:25:02;;;;;;;4.20;3.90;;;26.60;99.20;;;;;;5095846;28;20185;-56
2021/06/08 11:27:54;;;;;;;3.97;3.65;;;26.60;99.50;;;;;;5094465;28;20284;-53
2021/06/08 11:30:25;;;;;;;4.88;3.80;;;26.50;99.40;;;;;;5095631;28;20177;-59
2021/06/08 11:32:51;;;;;;;4.68;3.92;;;26.30;99.10;;;;;;5094471;28;20173;-55
2021/06/08 11:35:25;;;;;;;4.18;3.88;;;26.30;99.00;;;;;;5094838;28;20174;-55
2021/06/08 11:37:55;;;;;;;4.97;4.47;;;26.20;98.90;;;;;;5095196;28;20300;-55
2021/06/08 11:40:35;;;;;;;5.72;4.32;;;26.20;98.70;;;;;;5095440;28;20198;-59
2021/06/08 11:43:27;;;;;;;4.25;3.85;;;26.10;99.00;;;;;;5094532;28;20178;-57
2021/06/08 11:46:05;;;;;;;3.78;3.47;;;26.20;98.70;;;;;;5095156;28;20170;-55
2021/06/08 11:48:35;;;;;;;4.25;3.85;;;26.20;98.40;;;;;;5095564;28;20181;-58
2021/06/08 11:51:02;;;;;;;3.80;3.50;;;26.20;98.40;;;;;;5094084;28;20162;-57
2021/06/08 11:53:27;;;;;;;6.15;4.25;;;26.20;97.70;;;;;;5095049;28;20688;-58
2021/06/08 11:56:04;;;;;;;6.15;5.57;;;26.10;98.20;;;;;;5094139;28;20217;-60
2021/06/08 11:58:34;;;;;;;6.05;5.55;;;26.00;98.50;;;;;;5095050;28;20165;-59
2021/06/08 12:01:00;;;;;;;6.18;5.68;;;26.00;98.10;;;;;;5094843;28;20216;-56
2021/06/08 12:03:29;;;;;;;5.88;4.63;;;26.20;99.30;;;;;;5093845;28;20200;-59
2021/06/08 12:05:55;;;;;;;5.82;5.32;;;26.20;99.90;;;;;;5094898;28;20170;-54
2021/06/08 12:08:25;;;;;;;5.35;4.90;;;26.00;99.90;;;;;;5094890;28;20186;-59
2021/06/08 12:10:53;;;;;;;5.68;5.15;;;25.90;99.90;;;;;;5091908;28;20538;-58
2021/06/08 12:13:26;;;;;;;4.75;4.35;;;26.00;99.90;;;;;;5089401;28;20586;-57
2021/06/08 12:15:53;;;;;;;4.50;4.20;;;26.20;99.90;;;;;;5094555;28;20178;-58
2021/06/08 12:18:25;;;;;;;4.43;4.03;;;26.50;99.90;;;;;;5093713;28;20224;-58
2021/06/08 12:20:51;;;;;;;4.47;4.07;;;26.70;99.90;;;;;;5094585;28;20209;-59
2021/06/08 12:23:43;;;;;;;4.22;3.88;;;26.70;99.90;;;;;;5093225;28;20196;-60
2021/06/08 12:26:15;;;;;;;4.22;3.92;;;26.60;99.00;;;;;;5092704;28;20183;-57
2021/06/08 12:28:42;;;;;;;4.03;3.72;;;26.70;99.90;;;;;;5093890;28;20634;-57
2021/06/08 12:31:18;;;;;;;3.90;3.60;;;26.40;99.90;;;;;;5093987;28;20213;-59
2021/06/08 12:33:45;;;;;;;3.70;3.35;;;26.20;99.90;;;;;;5094647;28;20195;-59
2021/06/08 12:36:11;;;;;;;4.68;4.15;;;26.00;99.90;;;;;;5093364;28;20186;-58
2021/06/08 12:38:54;;;;;;;4.07;3.72;;;25.90;99.90;;;;;;5093991;28;20190;-56
2021/06/08 12:41:25;;;;;;;4.40;4.10;;;25.80;99.90;;;;;;5094128;28;20210;-60
2021/06/08 12:43:55;;;;;;;4.07;3.60;;;25.80;99.90;;;;;;5092685;28;20166;-56
2021/06/08 12:46:32;;;;;;;6.75;4.20;;;26.10;99.90;;;;;;5093624;28;20186;-55
2021/06/08 12:49:02;;;;;;;4.18;3.80;;;26.50;99.90;;;;;;5093706;28;20552;-57
2021/06/08 12:51:36;;;;;;;4.13;3.70;;;26.90;99.90;;;;;;5094211;28;20266;-59
2021/06/08 12:54:03;;;;;;;4.38;4.07;;;27.40;99.90;;;;;;5093342;28;20192;-58
2021/06/08 12:56:29;;;;;;;4.43;4.03;;;28.00;98.90;;;;;;5093967;28;20201;-60